Time;durP1;ratioP1;P1;durP2;ratioP2;P2;SDS_P1;SDS_P2;PMS_P1;PMS_P2;Temp;Humidity;BMP_temperature;BMP_pressure;BME280_temperature;BME280_humidity;BME280_pressure;Samples;Min_cycle;Max_cycle;Signal;HPM_P1;HPM_P2
2021/07/25 00:02:04;;;;;;;;;;;18.20;99.90;;;;;;5049835;28;19950;-85
2021/07/25 00:04:31;;;;;;;;;;;18.30;99.90;;;;;;5070070;28;20344;-86
2021/07/25 00:06:57;;;;;;;;;;;18.20;99.90;;;;;;5069010;28;19982;-86
2021/07/25 00:09:23;;;;;;;;;;;18.20;99.90;;;;;;5061645;28;19928;-85
2021/07/25 00:11:49;;;;;;;;;;;18.30;99.90;;;;;;5068281;28;20402;-89
2021/07/25 00:14:15;;;;;;;;;;;18.20;99.90;;;;;;5049387;28;19929;-88
2021/07/25 00:16:41;;;;;;;;;;;18.30;99.90;;;;;;5058043;28;20020;-86
2021/07/25 00:19:09;;;;;;;;;;;18.30;99.90;;;;;;5069250;28;20011;-87
2021/07/25 00:21:35;;;;;;;;;;;18.20;99.90;;;;;;5070172;28;19928;-87
2021/07/25 00:24:02;;;;;;;;;;;18.30;99.90;;;;;;5069863;28;20008;-87
2021/07/25 00:26:34;;;;;;;;;;;18.20;99.90;;;;;;5081400;28;19925;-88
2021/07/25 00:29:00;;;;;;;;;;;18.20;99.90;;;;;;5060333;28;19928;-88
2021/07/25 00:31:29;;;;;;;;;;;18.20;99.90;;;;;;5086225;28;19925;-87
2021/07/25 00:33:55;;;;;;;;;;;18.20;99.90;;;;;;5067941;28;19934;-89
2021/07/25 00:36:21;;;;;;;;;;;18.20;99.90;;;;;;5068414;28;20027;-87
2021/07/25 00:38:46;;;;;;;;;;;18.20;99.90;;;;;;5085736;28;20031;-88
2021/07/25 00:41:13;;;;;;;;;;;18.20;99.90;;;;;;5051562;28;20367;-87
2021/07/25 00:43:40;;;;;;;;;;;18.20;99.90;;;;;;5052299;28;19924;-88
2021/07/25 00:46:06;;;;;;;;;;;18.20;99.90;;;;;;5068390;28;20380;-88
2021/07/25 00:48:32;;;;;;;;;;;18.20;99.90;;;;;;5069731;28;19931;-87
2021/07/25 00:50:58;;;;;;;;;;;18.20;99.90;;;;;;5061199;28;20007;-87
2021/07/25 00:53:24;;;;;;;;;;;18.20;99.90;;;;;;5079570;28;19924;-88
2021/07/25 00:55:50;;;;;;;;;;;18.20;99.90;;;;;;5069537;28;20414;-87
2021/07/25 00:58:16;;;;;;;;;;;18.20;99.90;;;;;;5068009;28;20045;-87
2021/07/25 01:00:46;;;;;;;;;;;18.20;99.90;;;;;;5068384;28;19942;-88
2021/07/25 01:03:16;;;;;;;;;;;18.10;99.90;;;;;;5075578;28;19932;-87
2021/07/25 01:05:49;;;;;;;;;;;18.20;99.90;;;;;;5069136;28;19925;-88
2021/07/25 01:08:27;;;;;;;;;;;18.10;99.90;;;;;;5059452;28;19920;-86
2021/07/25 01:10:53;;;;;;;;;;;18.10;99.90;;;;;;5067581;28;19931;-90
2021/07/25 01:13:27;;;;;;;;;;;18.10;99.90;;;;;;5051122;28;19932;-87
2021/07/25 01:15:54;;;;;;;;;;;18.20;99.90;;;;;;5068703;28;19993;-90
2021/07/25 01:18:20;;;;;;;;;;;18.10;99.90;;;;;;5069219;28;19928;-87
2021/07/25 01:20:46;;;;;;;;;;;18.10;99.90;;;;;;5051488;28;19932;-86
2021/07/25 01:23:12;;;;;;;;;;;18.10;99.90;;;;;;5067311;28;19929;-86
2021/07/25 01:25:39;;;;;;;;;;;18.20;99.90;;;;;;5082086;28;19955;-86
2021/07/25 01:28:13;;;;;;;;;;;18.10;99.90;;;;;;5082763;28;19925;-85
2021/07/25 01:30:40;;;;;;;;;;;18.20;99.90;;;;;;5069906;28;19929;-85
2021/07/25 01:33:10;;;;;;;;;;;18.20;99.90;;;;;;5071964;28;19924;-85
2021/07/25 01:35:36;;;;;;;;;;;18.20;99.90;;;;;;5071435;28;20015;-86
2021/07/25 01:38:02;;;;;;;;;;;18.10;99.90;;;;;;5069412;28;19966;-87
2021/07/25 01:40:28;;;;;;;;;;;18.20;99.90;;;;;;5061004;28;20295;-86
2021/07/25 01:42:54;;;;;;;;;;;18.20;99.90;;;;;;5069943;28;19925;-85
2021/07/25 01:45:21;;;;;;;;;;;18.20;99.90;;;;;;5082206;28;19928;-88
2021/07/25 01:47:48;;;;;;;;;;;18.20;99.90;;;;;;5067111;28;19934;-89
2021/07/25 01:50:14;;;;;;;;;;;18.20;99.90;;;;;;5067773;28;20258;-88
2021/07/25 01:52:40;;;;;;;;;;;18.20;99.90;;;;;;5054443;28;19935;-88
2021/07/25 01:55:06;;;;;;;;;;;18.20;99.90;;;;;;5066365;28;19932;-88
2021/07/25 01:57:32;;;;;;;;;;;18.20;99.90;;;;;;5062277;28;19924;-88
2021/07/25 01:59:58;;;;;;;;;;;18.20;99.90;;;;;;5072196;28;19932;-90
2021/07/25 02:02:24;;;;;;;;;;;18.20;99.90;;;;;;5072919;28;19929;-88
2021/07/25 02:04:50;;;;;;;;;;;18.20;99.90;;;;;;5072999;28;19970;-89
2021/07/25 02:07:16;;;;;;;;;;;18.20;99.90;;;;;;5064347;28;20023;-88
2021/07/25 02:09:41;;;;;;;;;;;18.20;99.90;;;;;;5068212;28;19925;-86
2021/07/25 02:12:08;;;;;;;;;;;18.20;99.90;;;;;;5047426;28;19969;-88
2021/07/25 02:14:34;;;;;;;;;;;18.20;99.90;;;;;;5071964;28;19928;-88
2021/07/25 02:17:00;;;;;;;;;;;18.30;99.90;;;;;;5048027;28;19932;-89
2021/07/25 02:19:26;;;;;;;;;;;18.30;99.90;;;;;;5068377;28;19932;-87
2021/07/25 02:21:52;;;;;;;;;;;18.30;99.90;;;;;;5070727;28;20391;-87
2021/07/25 02:24:19;;;;;;;;;;;18.20;99.90;;;;;;5071243;28;19978;-87
2021/07/25 02:26:46;;;;;;;;;;;18.30;99.90;;;;;;5069939;28;19925;-86
2021/07/25 02:29:11;;;;;;;;;;;18.30;99.90;;;;;;5064362;28;19966;-86
2021/07/25 02:31:37;;;;;;;;;;;18.30;99.90;;;;;;5071306;28;19928;-87
2021/07/25 02:34:03;;;;;;;;;;;18.30;99.90;;;;;;5071210;28;19928;-88
2021/07/25 02:36:29;;;;;;;;;;;18.30;99.90;;;;;;5067101;28;19924;-87
2021/07/25 02:38:55;;;;;;;;;;;18.30;99.90;;;;;;5076299;28;20023;-88
2021/07/25 02:41:20;;;;;;;;;;;18.30;99.90;;;;;;5049279;28;20470;-87
2021/07/25 02:43:46;;;;;;;;;;;18.30;99.90;;;;;;5087315;28;20586;-87
2021/07/25 02:46:12;;;;;;;;;;;18.30;99.90;;;;;;5069641;28;19924;-87
2021/07/25 02:48:38;;;;;;;;;;;18.20;99.90;;;;;;5070553;28;19932;-87
2021/07/25 02:51:04;;;;;;;;;;;18.30;99.90;;;;;;5069793;28;19987;-87
2021/07/25 02:53:29;;;;;;;;;;;18.20;99.90;;;;;;5060962;28;19971;-87
2021/07/25 02:55:55;;;;;;;;;;;18.20;99.90;;;;;;5077325;28;20368;-87
2021/07/25 02:58:21;;;;;;;;;;;18.20;99.90;;;;;;5069437;28;19968;-86
2021/07/25 03:00:47;;;;;;;;;;;18.20;99.90;;;;;;5053898;28;19974;-87
2021/07/25 03:03:13;;;;;;;;;;;18.20;99.90;;;;;;5070524;28;19925;-86
2021/07/25 03:05:38;;;;;;;;;;;18.20;99.90;;;;;;5071286;28;19928;-87
2021/07/25 03:08:04;;;;;;;;;;;18.20;99.90;;;;;;5062237;28;19960;-89
2021/07/25 03:10:30;;;;;;;;;;;18.20;99.90;;;;;;5069385;28;19925;-87
2021/07/25 03:12:55;;;;;;;;;;;18.20;99.90;;;;;;5071378;28;19963;-86
2021/07/25 03:15:21;;;;;;;;;;;18.10;99.90;;;;;;5069226;28;19932;-86
2021/07/25 03:17:47;;;;;;;;;;;18.20;99.90;;;;;;5049607;28;19935;-87
2021/07/25 03:20:13;;;;;;;;;;;18.10;99.90;;;;;;5059487;28;19930;-86
2021/07/25 03:22:39;;;;;;;;;;;18.10;99.90;;;;;;5052107;28;20015;-87
2021/07/25 03:25:05;;;;;;;;;;;18.10;99.90;;;;;;5068579;28;19925;-89
2021/07/25 03:27:31;;;;;;;;;;;18.20;99.90;;;;;;5068862;28;19991;-88
2021/07/25 03:29:56;;;;;;;;;;;18.10;99.90;;;;;;5067799;28;19924;-85
2021/07/25 03:32:22;;;;;;;;;;;18.10;99.90;;;;;;5069083;28;20097;-86
2021/07/25 03:34:48;;;;;;;;;;;18.10;99.90;;;;;;5069168;28;19933;-86
2021/07/25 03:37:14;;;;;;;;;;;18.10;99.90;;;;;;5068624;28;19933;-86
2021/07/25 03:39:42;;;;;;;;;;;18.10;99.90;;;;;;5058221;28;19933;-86
2021/07/25 03:42:08;;;;;;;;;;;18.10;99.90;;;;;;5068327;28;19948;-86
2021/07/25 03:44:34;;;;;;;;;;;18.10;99.90;;;;;;5068982;28;20435;-85
2021/07/25 03:47:02;;;;;;;;;;;18.10;99.90;;;;;;5060013;28;19931;-86
2021/07/25 03:49:27;;;;;;;;;;;18.10;99.90;;;;;;5068043;28;20395;-86
2021/07/25 03:51:53;;;;;;;;;;;18.10;99.90;;;;;;5085501;28;19978;-86
2021/07/25 03:54:19;;;;;;;;;;;18.10;99.90;;;;;;5067593;28;19967;-86
2021/07/25 03:56:44;;;;;;;;;;;18.00;99.90;;;;;;5085389;28;20326;-86
2021/07/25 03:59:10;;;;;;;;;;;18.00;99.90;;;;;;5084758;28;19978;-86
2021/07/25 04:01:36;;;;;;;;;;;17.90;99.90;;;;;;5068679;28;19950;-85
2021/07/25 04:04:02;;;;;;;;;;;17.70;99.90;;;;;;5056128;28;19963;-86
2021/07/25 04:06:30;;;;;;;;;;;17.70;99.90;;;;;;5084615;28;19966;-86
2021/07/25 04:08:59;;;;;;;;;;;17.60;99.90;;;;;;5068643;28;19928;-86
2021/07/25 04:11:24;;;;;;;;;;;17.50;99.90;;;;;;5069357;28;19950;-86
2021/07/25 04:13:50;;;;;;;;;;;17.50;99.90;;;;;;5069753;28;20439;-86
2021/07/25 04:16:16;;;;;;;;;;;17.40;99.90;;;;;;5054774;28;20288;-85
2021/07/25 04:18:41;;;;;;;;;;;17.40;99.90;;;;;;5069925;28;19924;-86
2021/07/25 04:21:07;;;;;;;;;;;17.30;99.90;;;;;;5069677;28;19924;-89
2021/07/25 04:23:33;;;;;;;;;;;17.30;99.90;;;;;;5069166;28;19971;-86
2021/07/25 04:26:02;;;;;;;;;;;17.20;99.90;;;;;;5068658;28;19947;-89
2021/07/25 04:28:28;;;;;;;;;;;17.20;99.90;;;;;;5084944;28;20011;-86
2021/07/25 04:30:54;;;;;;;;;;;17.10;99.90;;;;;;5068752;28;20374;-86
2021/07/25 04:33:21;;;;;;;;;;;17.20;99.90;;;;;;5083661;28;20411;-87
2021/07/25 04:35:47;;;;;;;;;;;17.10;99.90;;;;;;5077793;28;19928;-86
2021/07/25 04:38:13;;;;;;;;;;;17.10;99.90;;;;;;5068830;28;19931;-86
2021/07/25 04:40:40;;;;;;;;;;;17.10;99.90;;;;;;5068502;28;19928;-86
2021/07/25 04:43:08;;;;;;;;;;;17.10;99.90;;;;;;5068403;28;20027;-86
2021/07/25 04:45:43;;;;;;;;;;;17.10;99.90;;;;;;5060797;28;20338;-86
2021/07/25 04:48:27;;;;;;;;;;;17.00;99.90;;;;;;5069604;28;20376;-88
2021/07/25 04:50:55;;;;;;;;;;;17.00;99.90;;;;;;5068397;28;19968;-86
2021/07/25 04:53:21;;;;;;;;;;;17.00;99.90;;;;;;5067584;28;20014;-87
2021/07/25 04:55:51;;;;;;;;;;;17.00;99.90;;;;;;5084567;28;20530;-88
2021/07/25 04:58:17;;;;;;;;;;;17.00;99.90;;;;;;5067729;28;19947;-87
2021/07/25 05:00:44;;;;;;;;;;;17.00;99.90;;;;;;5085337;28;20365;-87
2021/07/25 05:03:10;;;;;;;;;;;17.00;99.90;;;;;;5062155;28;20907;-88
2021/07/25 05:05:36;;;;;;;;;;;17.00;99.90;;;;;;5086526;28;19932;-87
2021/07/25 05:08:02;;;;;;;;;;;17.00;99.90;;;;;;5089172;28;20319;-85
2021/07/25 05:10:29;;;;;;;;;;;17.00;99.90;;;;;;5072224;28;20376;-87
2021/07/25 05:12:54;;;;;;;;;;;17.00;99.90;;;;;;5059401;28;19964;-86
2021/07/25 05:15:30;;;;;;;;;;;17.00;99.90;;;;;;5088349;28;20017;-86
2021/07/25 05:17:59;;;;;;;;;;;17.00;99.90;;;;;;5067751;28;19932;-87
2021/07/25 05:20:43;;;;;;;;;;;17.10;99.90;;;;;;5064624;28;19925;-86
2021/07/25 05:23:16;;;;;;;;;;;17.10;99.90;;;;;;5071821;28;20019;-86
2021/07/25 05:25:46;;;;;;;;;;;17.10;99.90;;;;;;5057196;28;19924;-86
2021/07/25 05:28:15;;;;;;;;;;;17.20;99.90;;;;;;5058158;28;20375;-89
2021/07/25 05:30:43;;;;;;;;;;;17.20;99.90;;;;;;5071975;28;19931;-86
2021/07/25 05:33:10;;;;;;;;;;;17.30;99.90;;;;;;5072845;28;19924;-86
2021/07/25 05:35:36;;;;;;;;;;;17.40;99.90;;;;;;5068510;28;20804;-86
2021/07/25 05:38:06;;;;;;;;;;;17.40;99.90;;;;;;5055639;28;19924;-86
2021/07/25 05:40:32;;;;;;;;;;;17.40;99.90;;;;;;5054339;28;19936;-87
2021/07/25 05:42:57;;;;;;;;;;;17.40;99.90;;;;;;5054711;28;19966;-87
2021/07/25 05:45:23;;;;;;;;;;;17.40;99.90;;;;;;5051777;28;19925;-88
2021/07/25 05:47:49;;;;;;;;;;;17.50;99.90;;;;;;5072912;28;19925;-86
2021/07/25 05:50:15;;;;;;;;;;;17.50;99.90;;;;;;5054400;28;20023;-88
2021/07/25 05:52:42;;;;;;;;;;;17.60;99.90;;;;;;5054685;28;20384;-86
2021/07/25 05:55:12;;;;;;;;;;;17.60;99.90;;;;;;5069870;28;19924;-86
2021/07/25 05:57:37;;;;;;;;;;;17.70;99.90;;;;;;5070428;28;20512;-86
2021/07/25 06:00:04;;;;;;;;;;;17.80;99.90;;;;;;5054525;28;19924;-86
2021/07/25 06:02:30;;;;;;;;;;;17.80;99.90;;;;;;5079007;28;19929;-85
2021/07/25 06:04:55;;;;;;;;;;;17.90;99.90;;;;;;5082337;28;20364;-85
2021/07/25 06:07:21;;;;;;;;;;;17.90;99.90;;;;;;5086585;28;20364;-86
2021/07/25 06:09:46;;;;;;;;;;;18.00;99.90;;;;;;5068362;28;19955;-86
2021/07/25 06:12:16;;;;;;;;;;;18.00;99.90;;;;;;5049095;28;20365;-85
2021/07/25 06:14:41;;;;;;;;;;;18.00;99.90;;;;;;5070581;28;19971;-85
2021/07/25 06:17:07;;;;;;;;;;;18.00;99.90;;;;;;5069551;28;20351;-85
2021/07/25 06:19:33;;;;;;;;;;;18.00;99.90;;;;;;5069503;28;20276;-85
2021/07/25 06:21:58;;;;;;;;;;;18.00;99.90;;;;;;5052040;28;19928;-85
2021/07/25 06:24:24;;;;;;;;;;;18.10;99.90;;;;;;5051983;28;20023;-86
2021/07/25 06:26:51;;;;;;;;;;;18.00;99.90;;;;;;5069871;28;19954;-86
2021/07/25 06:29:17;;;;;;;;;;;18.10;99.90;;;;;;5070932;28;19924;-87
2021/07/25 06:31:43;;;;;;;;;;;18.20;99.90;;;;;;5070253;28;19932;-85
2021/07/25 06:34:08;;;;;;;;;;;18.30;99.90;;;;;;5070768;28;20019;-84
2021/07/25 06:36:35;;;;;;;;;;;18.40;99.90;;;;;;5069363;28;19933;-84
2021/07/25 06:39:01;;;;;;;;;;;18.40;99.90;;;;;;5087099;28;19935;-82
2021/07/25 06:41:26;;;;;;;;;;;18.50;99.90;;;;;;5067132;28;20372;-82
2021/07/25 06:43:52;;;;;;;;;;;18.50;99.90;;;;;;5047326;28;19932;-81
2021/07/25 06:46:18;;;;;;;;;;;18.60;99.90;;;;;;5065987;28;19924;-83
2021/07/25 06:48:43;;;;;;;;;;;18.60;99.90;;;;;;5070807;28;19947;-82
2021/07/25 06:51:10;;;;;;;;;;;18.80;99.90;;;;;;5071545;28;19932;-82
2021/07/25 06:53:35;;;;;;;;;;;19.10;99.90;;;;;;5068906;28;19925;-83
2021/07/25 06:56:03;;;;;;;;;;;19.20;99.90;;;;;;5082586;28;20291;-85
2021/07/25 06:58:29;;;;;;;;;;;19.30;99.90;;;;;;5070046;28;20024;-83
2021/07/25 07:00:55;;;;;;;;;;;19.40;99.90;;;;;;5086083;28;20023;-84
2021/07/25 07:03:20;;;;;;;;;;;19.50;99.90;;;;;;5070432;28;19928;-85
2021/07/25 07:05:46;;;;;;;;;;;19.60;99.90;;;;;;5068571;28;19929;-84
2021/07/25 07:08:12;;;;;;;;;;;19.60;99.90;;;;;;5072585;28;20363;-83
2021/07/25 07:10:39;;;;;;;;;;;19.70;99.90;;;;;;5082012;28;20023;-83
2021/07/25 07:13:07;;;;;;;;;;;19.70;99.90;;;;;;5069336;28;19970;-82
2021/07/25 07:15:33;;;;;;;;;;;19.70;99.90;;;;;;5068606;28;19924;-84
2021/07/25 07:17:59;;;;;;;;;;;19.70;99.90;;;;;;5070415;28;20020;-85
2021/07/25 07:20:25;;;;;;;;;;;19.70;99.90;;;;;;5067944;28;20039;-86
2021/07/25 07:22:54;;;;;;;;;;;19.70;99.90;;;;;;5069472;28;20019;-84
2021/07/25 07:25:21;;;;;;;;;;;19.70;99.90;;;;;;5068673;28;20023;-84
2021/07/25 07:27:46;;;;;;;;;;;19.70;99.90;;;;;;5065366;28;19921;-85
2021/07/25 07:30:12;;;;;;;;;;;19.70;99.90;;;;;;5070690;28;19932;-84
2021/07/25 07:32:38;;;;;;;;;;;19.70;99.90;;;;;;5069569;28;19928;-84
2021/07/25 07:35:04;;;;;;;;;;;19.80;99.90;;;;;;5080651;28;19924;-83
2021/07/25 07:37:29;;;;;;;;;;;19.80;99.90;;;;;;5062388;28;19955;-83
2021/07/25 07:39:55;;;;;;;;;;;19.90;99.90;;;;;;5070195;28;19931;-85
2021/07/25 07:42:24;;;;;;;;;;;20.00;99.90;;;;;;5069486;28;19935;-83
2021/07/25 07:44:49;;;;;;;;;;;20.20;99.90;;;;;;5083061;28;19932;-83
2021/07/25 07:47:15;;;;;;;;;;;20.20;99.90;;;;;;5066756;28;19932;-84
2021/07/25 07:49:41;;;;;;;;;;;20.30;99.90;;;;;;5066256;28;19975;-84
2021/07/25 07:52:07;;;;;;;;;;;20.40;99.90;;;;;;5068328;28;19928;-84
2021/07/25 07:54:33;;;;;;;;;;;20.50;99.90;;;;;;5068787;28;19924;-83
2021/07/25 07:56:59;;;;;;;;;;;20.50;99.90;;;;;;5059354;28;19951;-84
2021/07/25 07:59:25;;;;;;;;;;;20.60;99.90;;;;;;5061687;28;20054;-83
2021/07/25 08:01:51;;;;;;;;;;;20.50;99.90;;;;;;5067846;28;20002;-85
2021/07/25 08:04:16;;;;;;;;;;;20.50;99.90;;;;;;5068717;28;19924;-84
2021/07/25 08:06:42;;;;;;;;;;;20.30;99.90;;;;;;5059723;28;19933;-85
2021/07/25 08:09:08;;;;;;;;;;;20.30;99.90;;;;;;5068892;28;19952;-84
2021/07/25 08:11:33;;;;;;;;;;;20.20;99.90;;;;;;5068089;28;19924;-84
2021/07/25 08:13:59;;;;;;;;;;;20.10;99.90;;;;;;5069536;28;19967;-84
2021/07/25 08:16:25;;;;;;;;;;;20.10;99.90;;;;;;5051807;28;19974;-83
2021/07/25 08:18:50;;;;;;;;;;;20.00;99.90;;;;;;5069048;28;20013;-84
2021/07/25 08:21:16;;;;;;;;;;;20.10;99.90;;;;;;5065460;28;19938;-83
2021/07/25 08:23:42;;;;;;;;;;;20.10;99.90;;;;;;5065639;28;20269;-83
2021/07/25 08:26:08;;;;;;;;;;;20.10;99.90;;;;;;5085316;28;20368;-84
2021/07/25 08:28:34;;;;;;;;;;;20.20;99.90;;;;;;5067722;28;19931;-83
2021/07/25 08:30:59;;;;;;;;;;;20.20;99.90;;;;;;5069578;28;20015;-84
2021/07/25 08:33:25;;;;;;;;;;;20.30;99.90;;;;;;5068102;28;19948;-84
2021/07/25 08:35:51;;;;;;;;;;;20.40;99.90;;;;;;5082045;28;19952;-84
2021/07/25 08:38:16;;;;;;;;;;;20.40;99.90;;;;;;5068284;28;19974;-83
2021/07/25 08:40:49;;;;;;;;;;;20.40;99.90;;;;;;5067233;28;19963;-83
2021/07/25 08:43:18;;;;;;;;;;;20.40;99.90;;;;;;5067956;28;20384;-84
2021/07/25 08:45:46;;;;;;;;;;;20.40;99.90;;;;;;5067579;28;19928;-83
2021/07/25 08:48:13;;;;;;;;;;;20.50;99.90;;;;;;5049813;28;19931;-85
2021/07/25 08:50:41;;;;;;;;;;;20.70;99.90;;;;;;5068768;28;19925;-85
2021/07/25 08:53:12;;;;;;;;;;;20.90;99.90;;;;;;5084235;28;20372;-84
2021/07/25 08:55:38;;;;;;;;;;;21.10;99.90;;;;;;5068869;28;20372;-84
2021/07/25 08:58:07;;;;;;;;;;;21.20;99.90;;;;;;5068604;28;19970;-84
2021/07/25 09:00:33;;;;;;;;;;;21.30;99.90;;;;;;5053836;28;20011;-86
2021/07/25 09:03:00;;;;;;;;;;;21.50;99.90;;;;;;5068000;28;20019;-86
2021/07/25 09:05:26;;;;;;;;;;;21.60;99.90;;;;;;5069184;28;19931;-84
2021/07/25 09:07:52;;;;;;;;;;;21.80;99.90;;;;;;5068291;28;20011;-84
2021/07/25 09:10:19;;;;;;;;;;;21.90;99.90;;;;;;5068181;28;19924;-83
2021/07/25 09:12:45;;;;;;;;;;;21.80;99.90;;;;;;5067160;28;19952;-83
2021/07/25 09:15:22;;;;;;;;;;;21.90;99.90;;;;;;5068145;28;19959;-84
2021/07/25 09:17:48;;;;;;;;;;;22.00;99.90;;;;;;5067314;28;20517;-84
2021/07/25 09:20:14;;;;;;;;;;;21.90;99.90;;;;;;5069107;28;19936;-83
2021/07/25 09:22:49;;;;;;;;;;;22.10;99.90;;;;;;5083046;28;19924;-83
2021/07/25 09:25:26;;;;;;;;;;;22.30;99.90;;;;;;5084784;28;19928;-83
2021/07/25 09:27:57;;;;;;;;;;;22.40;99.90;;;;;;5067252;28;19936;-84
2021/07/25 09:30:32;;;;;;;;;;;22.60;99.90;;;;;;5084578;28;20346;-84
2021/07/25 09:32:58;;;;;;;;;;;23.00;99.90;;;;;;5065364;28;19924;-85
2021/07/25 09:35:24;;;;;;;;;;;23.40;99.90;;;;;;5054572;28;19977;-84
2021/07/25 09:37:51;;;;;;;;;;;23.70;99.90;;;;;;5080198;28;19963;-86
2021/07/25 09:40:27;;;;;;;;;;;23.90;99.90;;;;;;5064761;28;19968;-85
2021/07/25 09:43:08;;;;;;;;;;;23.90;99.90;;;;;;5064065;28;19932;-84
2021/07/25 09:45:58;;;;;;;;;;;24.20;99.90;;;;;;5065803;28;20034;-88
2021/07/25 09:48:34;;;;;;;;;;;24.30;99.90;;;;;;5080712;28;19931;-84
2021/07/25 09:51:19;;;;;;;;;;;24.60;99.90;;;;;;5064501;28;20346;-84
2021/07/25 09:53:47;;;;;;;;;;;24.80;99.90;;;;;;5069018;28;19932;-85
2021/07/25 09:56:13;;;;;;;;;;;24.80;99.90;;;;;;5085139;28;19925;-85
2021/07/25 09:58:39;;;;;;;;;;;24.80;99.90;;;;;;5057192;28;19928;-89
2021/07/25 10:01:05;;;;;;;;;;;24.60;99.90;;;;;;5051576;28;19935;-84
2021/07/25 10:03:34;;;;;;;;;;;24.60;99.90;;;;;;5084771;28;19936;-87
2021/07/25 10:06:00;;;;;;;;;;;24.50;99.90;;;;;;5068004;28;20783;-84
2021/07/25 10:08:26;;;;;;;;;;;24.20;99.90;;;;;;5072370;28;19924;-85
2021/07/25 10:10:54;;;;;;;;;;;24.20;99.90;;;;;;5070603;28;20368;-84
2021/07/25 10:13:21;;;;;;;;;;;24.30;99.90;;;;;;5071403;28;19931;-84
2021/07/25 10:15:50;;;;;;;;;;;24.60;99.90;;;;;;5071651;28;19928;-87
2021/07/25 10:18:15;;;;;;;;;;;24.60;99.90;;;;;;5072585;28;19978;-85
2021/07/25 10:20:41;;;;;;;;;;;24.90;99.90;;;;;;5086976;28;19932;-87
2021/07/25 10:23:07;;;;;;;;;;;25.10;99.90;;;;;;5065070;28;19959;-84
2021/07/25 10:25:33;;;;;;;;;;;25.10;99.90;;;;;;5064303;28;19934;-84
2021/07/25 10:28:00;;;;;;;;;;;25.20;99.90;;;;;;5066605;28;19943;-86
2021/07/25 10:30:26;;;;;;;;;;;25.20;99.90;;;;;;5068782;28;19928;-84
2021/07/25 10:32:53;;;;;;;;;;;25.30;99.90;;;;;;5068491;28;19929;-86
2021/07/25 10:35:20;;;;;;;;;;;25.40;99.90;;;;;;5069228;28;20047;-84
2021/07/25 10:37:49;;;;;;;;;;;25.60;99.90;;;;;;5059437;28;19975;-86
2021/07/25 10:40:16;;;;;;;;;;;25.70;99.90;;;;;;5067955;28;20624;-86
2021/07/25 10:42:47;;;;;;;;;;;25.70;99.90;;;;;;5068903;28;19932;-88
2021/07/25 10:45:12;;;;;;;;;;;25.70;99.90;;;;;;5063152;28;19933;-86
2021/07/25 10:47:38;;;;;;;;;;;25.70;99.90;;;;;;5071516;28;19928;-88
2021/07/25 10:50:05;;;;;;;;;;;25.90;99.90;;;;;;5065683;28;19924;-85
2021/07/25 10:52:46;;;;;;;;;;;26.20;99.90;;;;;;5070067;28;19933;-84
2021/07/25 10:55:33;;;;;;;;;;;26.20;99.90;;;;;;5068613;28;20019;-84
2021/07/25 10:58:02;;;;;;;;;;;26.00;99.90;;;;;;5084061;28;19932;-84
2021/07/25 11:00:45;;;;;;;;;;;26.00;99.90;;;;;;5069856;28;19925;-85
2021/07/25 11:03:29;;;;;;;;;;;25.90;99.90;;;;;;5064660;28;19932;-86
2021/07/25 11:06:07;;;;;;;;;;;26.00;99.90;;;;;;5072944;28;20539;-85
2021/07/25 11:08:35;;;;;;;;;;;25.40;99.90;;;;;;5070405;28;20199;-86
2021/07/25 11:11:21;;;;;;;;;;;24.50;99.90;;;;;;5069895;28;20442;-85
2021/07/25 11:13:47;;;;;;;;;;;24.00;99.90;;;;;;5070940;28;19929;-86
2021/07/25 11:16:29;;;;;;;;;;;24.00;99.90;;;;;;5064764;28;19932;-85
2021/07/25 11:19:04;;;;;;;;;;;24.30;99.90;;;;;;5086612;28;20394;-86
2021/07/25 11:21:31;;;;;;;;;;;24.30;99.90;;;;;;5087204;28;19931;-85
2021/07/25 11:23:56;;;;;;;;;;;24.60;99.90;;;;;;5086607;28;20261;-85
2021/07/25 11:26:33;;;;;;;;;;;24.60;99.90;;;;;;5081944;28;19938;-84
2021/07/25 11:29:06;;;;;;;;;;;24.50;99.90;;;;;;5069481;28;19963;-87
2021/07/25 11:31:39;;;;;;;;;;;24.40;99.90;;;;;;5069477;28;19925;-84
2021/07/25 11:34:05;;;;;;;;;;;24.60;99.90;;;;;;5066051;28;20404;-84
2021/07/25 11:36:31;;;;;;;;;;;24.70;99.90;;;;;;5068707;28;20035;-84
2021/07/25 11:38:59;;;;;;;;;;;24.80;99.90;;;;;;5085685;28;19956;-84
2021/07/25 11:41:26;;;;;;;;;;;25.00;99.90;;;;;;5069127;28;19924;-84
2021/07/25 11:44:01;;;;;;;;;;;25.10;99.90;;;;;;5068311;28;19930;-85
2021/07/25 11:46:28;;;;;;;;;;;25.40;99.90;;;;;;5067783;28;19936;-88
2021/07/25 11:49:00;;;;;;;;;;;25.70;99.90;;;;;;5069812;28;19928;-85
2021/07/25 11:51:26;;;;;;;;;;;26.10;99.90;;;;;;5070417;28;19966;-85
2021/07/25 11:53:52;;;;;;;;;;;26.50;99.90;;;;;;5069599;28;20292;-85
2021/07/25 11:56:18;;;;;;;;;;;26.70;99.90;;;;;;5070150;28;19932;-85
2021/07/25 11:58:59;;;;;;;;;;;26.80;99.90;;;;;;5068792;28;19924;-88
2021/07/25 12:01:25;;;;;;;;;;;26.90;99.90;;;;;;5071098;28;20482;-85
2021/07/25 12:03:50;;;;;;;;;;;27.10;99.90;;;;;;5068315;28;19944;-86
2021/07/25 12:06:17;;;;;;;;;;;26.90;99.90;;;;;;5052323;28;19966;-86
2021/07/25 12:09:01;;;;;;;;;;;27.00;99.90;;;;;;5055844;28;20031;-85
2021/07/25 12:11:27;;;;;;;;;;;27.00;99.90;;;;;;5068549;28;19928;-85
2021/07/25 12:13:53;;;;;;;;;;;27.10;99.90;;;;;;5066777;28;19924;-85
2021/07/25 12:16:18;;;;;;;;;;;27.10;99.90;;;;;;5066812;28;19924;-85
2021/07/25 12:18:46;;;;;;;;;;;27.10;99.90;;;;;;5065321;28;19974;-85
2021/07/25 12:21:29;;;;;;;;;;;26.80;99.90;;;;;;5051252;28;19928;-86
2021/07/25 12:23:56;;;;;;;;;;;27.00;99.90;;;;;;5068923;28;19935;-87
2021/07/25 12:26:38;;;;;;;;;;;27.30;99.90;;;;;;5068605;28;20058;-85
2021/07/25 12:29:23;;;;;;;;;;;27.40;99.90;;;;;;5067372;28;20019;-87
2021/07/25 12:31:49;;;;;;;;;;;27.40;99.90;;;;;;5059726;28;19958;-89
2021/07/25 12:34:21;;;;;;;;;;;27.30;99.90;;;;;;5060812;28;19929;-85
2021/07/25 12:36:46;;;;;;;;;;;27.30;99.90;;;;;;5057365;28;19928;-87
2021/07/25 12:39:19;;;;;;;;;;;27.20;99.90;;;;;;5068892;28;19925;-86
2021/07/25 12:41:44;;;;;;;;;;;27.20;99.90;;;;;;5069428;28;19924;-86
2021/07/25 12:44:24;;;;;;;;;;;27.20;99.90;;;;;;5048253;28;19936;-86
2021/07/25 12:46:49;;;;;;;;;;;27.20;99.90;;;;;;5067613;28;19935;-89
2021/07/25 12:49:15;;;;;;;;;;;27.30;99.90;;;;;;5064740;28;19932;-86
2021/07/25 12:51:44;;;;;;;;;;;27.30;99.90;;;;;;5069154;28;19935;-88
2021/07/25 12:54:12;;;;;;;;;;;27.20;99.90;;;;;;5064841;28;19966;-85
2021/07/25 12:56:38;;;;;;;;;;;27.30;99.90;;;;;;5069404;28;19924;-85
2021/07/25 12:59:06;;;;;;;;;;;27.30;99.90;;;;;;5068743;28;19924;-84
2021/07/25 13:04:12;;;;;;;;;;;27.40;99.90;;;;;;5068832;28;19946;-84
2021/07/25 13:06:39;;;;;;;;;;;27.50;99.90;;;;;;5069262;28;19932;-84
2021/07/25 13:09:18;;;;;;;;;;;27.70;99.90;;;;;;5047646;28;19947;-84
2021/07/25 13:11:46;;;;;;;;;;;27.80;99.90;;;;;;5068293;28;19977;-86
2021/07/25 13:14:13;;;;;;;;;;;28.10;99.80;;;;;;5068627;28;19920;-86
2021/07/25 13:16:47;;;;;;;;;;;28.30;99.90;;;;;;5068004;28;19929;-85
2021/07/25 13:19:13;;;;;;;;;;;28.40;99.10;;;;;;5062947;28;19921;-86
2021/07/25 13:21:39;;;;;;;;;;;28.80;99.80;;;;;;5066481;28;20200;-86
2021/07/25 13:24:05;;;;;;;;;;;29.10;97.80;;;;;;5068563;28;19924;-88
2021/07/25 13:26:30;;;;;;;;;;;29.30;97.20;;;;;;5057427;28;19924;-86
2021/07/25 13:28:57;;;;;;;;;;;29.60;98.20;;;;;;5053399;28;19928;-86
2021/07/25 13:31:23;;;;;;;;;;;29.80;97.00;;;;;;5072467;28;19967;-88
2021/07/25 13:33:50;;;;;;;;;;;30.00;97.00;;;;;;5071667;28;19964;-86
2021/07/25 13:36:16;;;;;;;;;;;30.20;96.50;;;;;;5071413;28;19928;-86
2021/07/25 13:38:42;;;;;;;;;;;30.30;96.00;;;;;;5072253;28;19931;-86
2021/07/25 13:41:08;;;;;;;;;;;30.50;95.40;;;;;;5070565;28;19925;-86
2021/07/25 13:43:37;;;;;;;;;;;30.60;95.50;;;;;;5082204;28;19932;-86
2021/07/25 13:46:04;;;;;;;;;;;30.80;96.20;;;;;;5065297;28;19924;-85
2021/07/25 13:48:31;;;;;;;;;;;31.10;96.30;;;;;;5064199;28;20296;-89
2021/07/25 13:50:57;;;;;;;;;;;31.40;95.00;;;;;;5080461;28;19955;-89
2021/07/25 13:53:23;;;;;;;;;;;31.60;94.50;;;;;;5075512;28;19955;-87
2021/07/25 13:55:49;;;;;;;;;;;31.70;94.70;;;;;;5068825;28;19924;-87
2021/07/25 13:58:15;;;;;;;;;;;31.80;93.60;;;;;;5046551;28;19920;-87
2021/07/25 14:00:41;;;;;;;;;;;31.50;93.30;;;;;;5056698;28;19928;-85
2021/07/25 14:03:06;;;;;;;;;;;31.50;93.00;;;;;;5068749;28;20035;-86
2021/07/25 14:05:34;;;;;;;;;;;31.10;93.60;;;;;;5084917;28;19974;-87
2021/07/25 14:08:00;;;;;;;;;;;31.30;93.20;;;;;;5068869;28;19928;-90
2021/07/25 14:10:26;;;;;;;;;;;31.90;93.70;;;;;;5084677;28;19966;-87
2021/07/25 14:12:52;;;;;;;;;;;32.00;93.30;;;;;;5085228;28;19960;-90
2021/07/25 14:15:18;;;;;;;;;;;32.10;92.90;;;;;;5068949;28;19920;-88
2021/07/25 14:17:43;;;;;;;;;;;31.80;91.80;;;;;;5069358;28;20427;-87
2021/07/25 14:20:12;;;;;;;;;;;31.80;92.30;;;;;;5067036;28;19924;-88
2021/07/25 14:22:44;;;;;;;;;;;32.00;92.30;;;;;;5084993;28;19928;-86